Main page
Satellite images Climate Cyclones Lightning AirportsFAQ Languages Contact Newsletter About
Weather : Europe Africa North America South America Asia Australia-Oceania Others

1216, Hong Kong, Hong Kong International Airport

latitude: , longitude: China, elevation: 22-19N m


METAR: VHHH 241300Z 28004KT 8000 FEW020 SCT035 19/14 Q1019 NOSIG